Time;durP1;ratioP1;P1;durP2;ratioP2;P2;SDS_P1;SDS_P2;PMS_P1;PMS_P2;Temp;Humidity;BMP_temperature;BMP_pressure;BME280_temperature;BME280_humidity;BME280_pressure;Samples;Min_cycle;Max_cycle;Signal;HPM_P1;HPM_P2
2022/09/05 00:02:13;;;;;;;5.13;2.33;;;;;;;;;;5075110;28;20439;-70
2022/09/05 00:04:45;;;;;;;6.30;2.80;;;;;;;;;;5088197;28;20451;-70
2022/09/05 00:07:19;;;;;;;5.57;2.67;;;;;;;;;;5095409;28;20471;-70
2022/09/05 00:09:58;;;;;;;5.97;2.63;;;;;;;;;;5095732;28;21023;-69
2022/09/05 00:12:27;;;;;;;6.67;3.90;;;;;;;;;;5088620;28;20533;-70
2022/09/05 00:15:01;;;;;;;7.27;3.40;;;;;;;;;;5075437;28;20456;-70
2022/09/05 00:17:34;;;;;;;5.67;2.60;;;;;;;;;;5076383;28;20480;-69
2022/09/05 00:20:09;;;;;;;4.90;2.77;;;;;;;;;;5075226;28;20751;-69
2022/09/05 00:22:43;;;;;;;6.60;2.87;;;;;;;;;;5075657;28;20522;-69
2022/09/05 00:25:24;;;;;;;5.20;3.03;;;;;;;;;;5074761;28;20460;-69
2022/09/05 00:27:54;;;;;;;4.73;2.70;;;;;;;;;;5060170;28;20885;-70
2022/09/05 00:30:21;;;;;;;6.50;3.50;;;;;;;;;;5074750;28;20437;-70
2022/09/05 00:33:01;;;;;;;7.87;3.10;;;;;;;;;;5087343;28;20526;-69
2022/09/05 00:35:34;;;;;;;5.80;2.83;;;;;;;;;;5095703;28;20475;-69
2022/09/05 00:38:14;;;;;;;5.77;2.90;;;;;;;;;;5095427;28;20544;-70
2022/09/05 00:40:43;;;;;;;5.23;2.60;;;;;;;;;;5096607;28;20548;-69
2022/09/05 00:43:13;;;;;;;5.40;2.60;;;;;;;;;;5095990;28;20518;-71
2022/09/05 00:45:47;;;;;;;5.70;2.87;;;;;;;;;;5096299;28;20463;-70
2022/09/05 00:48:18;;;;;;;6.27;3.27;;;;;;;;;;5095865;28;20465;-71
2022/09/05 00:50:54;;;;;;;4.90;2.50;;;;;;;;;;5095383;28;20469;-69
2022/09/05 00:53:26;;;;;;;6.33;3.03;;;;;;;;;;5095544;28;20487;-70
2022/09/05 00:56:01;;;;;;;5.03;2.87;;;;;;;;;;5094923;28;20464;-71
2022/09/05 00:58:37;;;;;;;6.93;2.97;;;;;;;;;;5095236;28;20843;-70
2022/09/05 01:01:07;;;;;;;7.70;2.50;;;;;;;;;;5094402;28;20459;-70
2022/09/05 01:03:45;;;;;;;6.57;3.10;;;;;;;;;;5095248;28;20448;-70
2022/09/05 01:06:27;;;;;;;5.37;2.63;;;;;;;;;;5095794;28;20453;-69
2022/09/05 01:09:08;;;;;;;5.90;3.20;;;;;;;;;;5095330;28;20475;-70
2022/09/05 01:11:42;;;;;;;6.10;2.70;;;;;;;;;;5096591;28;20517;-70
2022/09/05 01:14:22;;;;;;;6.03;2.90;;;;;;;;;;5095648;28;20454;-70
2022/09/05 01:17:05;;;;;;;6.10;2.70;;;;;;;;;;5095454;28;20963;-69
2022/09/05 01:19:40;;;;;;;8.77;2.70;;;;;;;;;;5075026;28;20457;-69
2022/09/05 01:22:23;;;;;;;4.97;2.60;;;;;;;;;;5081968;28;20458;-69
2022/09/05 01:25:04;;;;;;;5.03;2.93;;;;;;;;;;5094053;28;20524;-69
2022/09/05 01:27:40;;;;;;;4.20;2.00;;;;;;;;;;5095219;28;20820;-70
2022/09/05 01:30:11;;;;;;;5.27;2.40;;;;;;;;;;5083949;28;20467;-70
2022/09/05 01:32:41;;;;;;;6.83;3.07;;;;;;;;;;5074658;28;20451;-70
2022/09/05 01:35:30;;;;;;;7.83;2.90;;;;;;;;;;5075087;28;20507;-70
2022/09/05 01:38:01;;;;;;;5.53;2.47;;;;;;;;;;5064463;28;20487;-70
2022/09/05 01:40:30;;;;;;;5.60;2.70;;;;;;;;;;5074165;28;20460;-70
2022/09/05 01:43:05;;;;;;;4.90;2.53;;;;;;;;;;5073859;28;20875;-70
2022/09/05 01:45:40;;;;;;;8.43;2.53;;;;;;;;;;5074686;28;20452;-70
2022/09/05 01:48:10;;;;;;;6.20;3.10;;;;;;;;;;5073815;28;20452;-70
2022/09/05 01:50:46;;;;;;;6.50;2.80;;;;;;;;;;5074593;28;20452;-70
2022/09/05 01:53:33;;;;;;;5.03;2.83;;;;;;;;;;5074999;28;20475;-70
2022/09/05 01:56:12;;;;;;;6.93;3.10;;;;;;;;;;5074186;28;20460;-70
2022/09/05 01:58:49;;;;;;;5.10;2.70;;;;;;;;;;5074045;28;20770;-70
2022/09/05 02:01:19;;;;;;;5.13;2.80;;;;;;;;;;5093121;28;20459;-70
2022/09/05 02:03:51;;;;;;;7.77;3.03;;;;;;;;;;5093627;28;20517;-70
2022/09/05 02:06:38;;;;;;;6.17;2.80;;;;;;;;;;5073787;28;20817;-70
2022/09/05 02:09:17;;;;;;;6.00;2.97;;;;;;;;;;5069139;28;20463;-70
2022/09/05 02:11:46;;;;;;;5.23;2.53;;;;;;;;;;5079383;28;20538;-70
2022/09/05 02:14:25;;;;;;;5.93;2.50;;;;;;;;;;5092702;28;20490;-70
2022/09/05 02:16:54;;;;;;;5.47;2.87;;;;;;;;;;5077261;28;20870;-70
2022/09/05 02:19:25;;;;;;;5.23;2.50;;;;;;;;;;5077371;28;20448;-70
2022/09/05 02:21:58;;;;;;;5.40;3.30;;;;;;;;;;5077644;28;20456;-70
2022/09/05 02:24:27;;;;;;;5.17;2.80;;;;;;;;;;5077881;28;20522;-70
2022/09/05 02:27:03;;;;;;;5.23;2.80;;;;;;;;;;5093959;28;20554;-70
2022/09/05 02:29:36;;;;;;;6.60;3.60;;;;;;;;;;5096585;28;20445;-70
2022/09/05 02:32:09;;;;;;;9.33;3.00;;;;;;;;;;5083421;28;20448;-70
2022/09/05 02:34:40;;;;;;;5.83;2.60;;;;;;;;;;5097480;28;20519;-70
2022/09/05 02:37:11;;;;;;;5.07;2.90;;;;;;;;;;5097416;28;21746;-70
2022/09/05 02:39:44;;;;;;;5.53;3.50;;;;;;;;;;5096716;28;20466;-70
2022/09/05 02:42:18;;;;;;;7.53;3.40;;;;;;;;;;5096417;28;20467;-70
2022/09/05 02:44:53;;;;;;;5.07;3.30;;;;;;;;;;5097655;28;20777;-70
2022/09/05 02:47:22;;;;;;;5.67;2.40;;;;;;;;;;5097304;28;20538;-70
2022/09/05 02:49:55;;;;;;;5.90;3.37;;;;;;;;;;5096752;28;20787;-70
2022/09/05 02:52:25;;;;;;;5.50;2.90;;;;;;;;;;5097947;28;20568;-69
2022/09/05 02:54:53;;;;;;;10.83;3.27;;;;;;;;;;5096755;28;20451;-69
2022/09/05 02:57:31;;;;;;;6.20;2.97;;;;;;;;;;5096610;28;20491;-70
2022/09/05 03:00:06;;;;;;;5.50;3.23;;;;;;;;;;5096422;28;20443;-70
2022/09/05 03:02:37;;;;;;;7.13;3.50;;;;;;;;;;5096888;28;20754;-69
2022/09/05 03:05:08;;;;;;;9.10;3.30;;;;;;;;;;5096025;28;20512;-69
2022/09/05 03:07:56;;;;;;;6.27;3.10;;;;;;;;;;5097014;28;21058;-69
2022/09/05 03:10:34;;;;;;;5.77;3.07;;;;;;;;;;5096316;28;20460;-69
2022/09/05 03:13:19;;;;;;;7.00;3.50;;;;;;;;;;5096969;28;20479;-70
2022/09/05 03:16:17;;;;;;;5.03;2.90;;;;;;;;;;5096633;28;20498;-69
2022/09/05 03:19:14;;;;;;;7.77;4.07;;;;;;;;;;5096266;28;20484;-69
2022/09/05 03:21:59;;;;;;;5.83;2.87;;;;;;;;;;5096444;28;20476;-70
2022/09/05 03:24:46;;;;;;;4.67;2.83;;;;;;;;;;5087929;28;20558;-69
2022/09/05 03:27:46;;;;;;;8.00;4.00;;;;;;;;;;5042280;28;21055;-69
2022/09/05 03:30:15;;;;;;;5.97;2.63;;;;;;;;;;4995207;28;20561;-69
2022/09/05 03:32:56;;;;;;;5.00;3.23;;;;;;;;;;4993870;28;20474;-69
2022/09/05 03:35:46;;;;;;;5.70;3.90;;;;;;;;;;5045995;28;20466;-69
2022/09/05 03:38:30;;;;;;;5.57;3.20;;;;;;;;;;5096325;28;20478;-69
2022/09/05 03:41:12;;;;;;;4.63;3.30;;;;;;;;;;5096248;28;20452;-69
2022/09/05 03:43:49;;;;;;;5.47;3.30;;;;;;;;;;5096511;28;20542;-69
2022/09/05 03:46:31;;;;;;;6.47;3.17;;;;;;;;;;5095977;28;20925;-69
2022/09/05 03:49:09;;;;;;;8.60;3.37;;;;;;;;;;5052194;28;20455;-69
2022/09/05 03:51:45;;;;;;;6.30;3.40;;;;;;;;;;5096305;28;20459;-69
2022/09/05 03:54:22;;;;;;;5.00;2.97;;;;;;;;;;5095940;28;20459;-69
2022/09/05 03:57:07;;;;;;;7.00;3.57;;;;;;;;;;5096848;28;20443;-69
2022/09/05 03:59:45;;;;;;;6.43;3.33;;;;;;;;;;5095753;28;20447;-69
2022/09/05 04:02:14;;;;;;;4.13;2.50;;;;;;;;;;5096457;28;20466;-69
2022/09/05 04:04:44;;;;;;;5.57;3.17;;;;;;;;;;5095702;28;20455;-69
2022/09/05 04:07:16;;;;;;;6.37;3.80;;;;;;;;;;5096258;28;20566;-69
2022/09/05 04:09:47;;;;;;;5.40;3.00;;;;;;;;;;5094458;28;20898;-69
2022/09/05 04:12:16;;;;;;;4.80;3.10;;;;;;;;;;5075478;28;20890;-69
2022/09/05 04:14:46;;;;;;;5.27;3.17;;;;;;;;;;5081142;28;20842;-69
2022/09/05 04:17:21;;;;;;;5.53;2.83;;;;;;;;;;5094307;28;20525;-69
2022/09/05 04:19:51;;;;;;;5.93;3.53;;;;;;;;;;5083882;28;20451;-69
2022/09/05 04:22:23;;;;;;;5.37;3.67;;;;;;;;;;5092263;28;20518;-69
2022/09/05 04:24:59;;;;;;;5.33;2.80;;;;;;;;;;5086227;28;20547;-69
2022/09/05 04:27:31;;;;;;;6.53;3.47;;;;;;;;;;5093287;28;20554;-69
2022/09/05 04:30:00;;;;;;;5.80;3.40;;;;;;;;;;5083029;28;20463;-69
2022/09/05 04:32:33;;;;;;;4.77;3.37;;;;;;;;;;5092009;28;20632;-69
2022/09/05 04:35:08;;;;;;;5.43;3.30;;;;;;;;;;5085590;28;20440;-69
2022/09/05 04:37:38;;;;;;;8.60;3.40;;;;;;;;;;5084920;28;20852;-69
2022/09/05 04:40:21;;;;;;;6.57;3.20;;;;;;;;;;5078175;28;20571;-68
2022/09/05 04:42:48;;;;;;;7.70;2.57;;;;;;;;;;5088585;28;20447;-69
2022/09/05 04:45:16;;;;;;;7.33;3.40;;;;;;;;;;5094322;28;20542;-69
2022/09/05 04:47:49;;;;;;;4.83;3.47;;;;;;;;;;5094008;28;20902;-69
2022/09/05 04:50:19;;;;;;;7.73;3.40;;;;;;;;;;5094026;28;20490;-69
2022/09/05 04:53:04;;;;;;;4.53;2.87;;;;;;;;;;5094207;28;20474;-69
2022/09/05 04:55:33;;;;;;;7.60;3.20;;;;;;;;;;5092736;28;20448;-69
2022/09/05 04:58:04;;;;;;;52.17;13.50;;;;;;;;;;5094394;28;20952;-69
2022/09/05 05:00:35;;;;;;;9.33;3.90;;;;;;;;;;5095180;28;20456;-69
2022/09/05 05:03:03;;;;;;;5.83;2.70;;;;;;;;;;5094187;28;20528;-69
2022/09/05 05:05:42;;;;;;;6.40;2.80;;;;;;;;;;5093787;28;21020;-70
2022/09/05 05:08:16;;;;;;;5.20;3.87;;;;;;;;;;5093824;28;20451;-70
2022/09/05 05:10:45;;;;;;;5.53;3.57;;;;;;;;;;5092932;28;20456;-69
2022/09/05 05:13:17;;;;;;;4.80;3.10;;;;;;;;;;5080559;28;21039;-69
2022/09/05 05:15:47;;;;;;;5.50;3.23;;;;;;;;;;5078554;28;20451;-69
2022/09/05 05:18:18;;;;;;;5.87;3.17;;;;;;;;;;5093061;28;20493;-70
2022/09/05 05:20:51;;;;;;;4.70;3.00;;;;;;;;;;5062217;28;20449;-69
2022/09/05 05:23:19;;;;;;;7.47;3.83;;;;;;;;;;5072907;28;20483;-71
2022/09/05 05:25:49;;;;;;;6.80;3.37;;;;;;;;;;5087540;28;20524;-70
2022/09/05 05:28:18;;;;;;;6.73;3.50;;;;;;;;;;5093853;28;20951;-70
2022/09/05 05:30:45;;;;;;;5.87;3.47;;;;;;;;;;5092034;28;21191;-70
2022/09/05 05:33:19;;;;;;;4.60;2.97;;;;;;;;;;5093712;28;20458;-70
2022/09/05 05:35:48;;;;;;;9.10;3.20;;;;;;;;;;5092805;28;20483;-73
2022/09/05 05:38:23;;;;;;;4.20;2.83;;;;;;;;;;5092603;28;20542;-71
2022/09/05 05:40:52;;;;;;;5.70;3.10;;;;;;;;;;5070998;28;20458;-72
2022/09/05 05:43:21;;;;;;;4.43;3.00;;;;;;;;;;5076818;28;20918;-72
2022/09/05 05:45:56;;;;;;;7.53;3.00;;;;;;;;;;5091258;28;20563;-72
2022/09/05 05:48:30;;;;;;;4.10;2.77;;;;;;;;;;5073263;28;20506;-72
2022/09/05 05:51:24;;;;;;;5.30;4.07;;;;;;;;;;5073116;28;20444;-71
2022/09/05 05:54:01;;;;;;;4.20;2.93;;;;;;;;;;5025254;28;20468;-73
2022/09/05 05:56:49;;;;;;;6.13;3.10;;;;;;;;;;5072023;28;20447;-72
2022/09/05 05:59:27;;;;;;;5.40;2.80;;;;;;;;;;5052023;28;20980;-71
2022/09/05 06:02:08;;;;;;;5.63;3.27;;;;;;;;;;5089520;28;20452;-71
2022/09/05 06:05:05;;;;;;;5.23;3.30;;;;;;;;;;5078622;28;20468;-71
2022/09/05 06:07:36;;;;;;;5.10;3.43;;;;;;;;;;5092000;28;20491;-70
2022/09/05 06:10:23;;;;;;;4.37;3.00;;;;;;;;;;5090707;28;20526;-70
2022/09/05 06:13:15;;;;;;;5.13;3.40;;;;;;;;;;5090378;28;20463;-71
2022/09/05 06:15:53;;;;;;;4.70;3.43;;;;;;;;;;5092020;28;20525;-70
2022/09/05 06:18:28;;;;;;;6.50;3.37;;;;;;;;;;5089102;28;20479;-72
2022/09/05 06:21:12;;;;;;;4.40;3.13;;;;;;;;;;5091502;28;20458;-70
2022/09/05 06:24:02;;;;;;;4.27;2.47;;;;;;;;;;5006217;28;20878;-71
2022/09/05 06:26:50;;;;;;;9.23;3.33;;;;;;;;;;5091035;28;20534;-72
2022/09/05 06:29:41;;;;;;;6.27;2.73;;;;;;;;;;5087872;28;20940;-71
2022/09/05 06:32:16;;;;;;;5.77;3.40;;;;;;;;;;5077712;28;20542;-71
2022/09/05 06:35:08;;;;;;;5.20;2.93;;;;;;;;;;5093591;28;20531;-71
2022/09/05 06:37:39;;;;;;;7.00;3.03;;;;;;;;;;5066287;28;20480;-70
2022/09/05 06:40:11;;;;;;;5.97;3.70;;;;;;;;;;5077152;28;20518;-70
2022/09/05 06:42:49;;;;;;;6.53;2.93;;;;;;;;;;5090348;28;20459;-71
2022/09/05 06:45:32;;;;;;;6.50;3.47;;;;;;;;;;5088719;28;20458;-69
2022/09/05 06:48:09;;;;;;;6.10;2.60;;;;;;;;;;5088089;28;21020;-69
2022/09/05 06:50:41;;;;;;;4.53;2.80;;;;;;;;;;5090689;28;21086;-70
2022/09/05 06:53:20;;;;;;;9.27;4.03;;;;;;;;;;5091087;28;20553;-70
2022/09/05 06:56:04;;;;;;;6.17;3.00;;;;;;;;;;5090165;28;20736;-69
2022/09/05 06:58:50;;;;;;;9.03;3.53;;;;;;;;;;5089788;28;20536;-70
2022/09/05 07:01:26;;;;;;;5.13;3.20;;;;;;;;;;5091620;28;20456;-70
2022/09/05 07:04:09;;;;;;;6.27;3.33;;;;;;;;;;5094291;28;20483;-70
2022/09/05 07:06:42;;;;;;;6.00;3.60;;;;;;;;;;5093782;28;20539;-70
2022/09/05 07:09:14;;;;;;;5.77;2.97;;;;;;;;;;5107525;28;21080;-71
2022/09/05 07:11:54;;;;;;;4.30;2.77;;;;;;;;;;5087627;28;20978;-70
2022/09/05 07:14:27;;;;;;;6.00;3.77;;;;;;;;;;5092580;28;20465;-70
2022/09/05 07:16:58;;;;;;;10.53;3.77;;;;;;;;;;5091869;28;20703;-71
2022/09/05 07:19:34;;;;;;;8.83;3.80;;;;;;;;;;5085315;28;20490;-70
2022/09/05 07:22:15;;;;;;;5.80;3.20;;;;;;;;;;5083946;28;20436;-71
2022/09/05 07:24:51;;;;;;;6.03;3.50;;;;;;;;;;5088653;28;20485;-71
2022/09/05 07:27:28;;;;;;;7.20;4.20;;;;;;;;;;5087297;28;20474;-71
2022/09/05 07:30:10;;;;;;;6.60;3.40;;;;;;;;;;5089980;28;20474;-71
2022/09/05 07:32:42;;;;;;;7.40;3.63;;;;;;;;;;5092487;28;20451;-72
2022/09/05 07:35:14;;;;;;;7.63;3.40;;;;;;;;;;5085130;28;20471;-71
2022/09/05 07:37:49;;;;;;;5.03;3.30;;;;;;;;;;5081164;28;20540;-71
2022/09/05 07:40:24;;;;;;;8.90;3.50;;;;;;;;;;5086990;28;20452;-69
2022/09/05 07:42:55;;;;;;;5.40;3.00;;;;;;;;;;5085090;28;20851;-70
2022/09/05 07:45:25;;;;;;;13.00;4.13;;;;;;;;;;5095149;28;20754;-71
2022/09/05 07:47:56;;;;;;;5.27;3.43;;;;;;;;;;5094247;28;20468;-71
2022/09/05 07:50:26;;;;;;;4.70;2.87;;;;;;;;;;5087259;28;20471;-71
2022/09/05 07:52:55;;;;;;;8.03;3.23;;;;;;;;;;5083313;28;20958;-72
2022/09/05 07:55:35;;;;;;;5.00;3.00;;;;;;;;;;5084313;28;20455;-71
2022/09/05 07:58:07;;;;;;;6.87;3.70;;;;;;;;;;5085380;28;20532;-71
2022/09/05 08:00:35;;;;;;;5.67;3.47;;;;;;;;;;5083813;28;20468;-71
2022/09/05 08:03:15;;;;;;;5.13;3.17;;;;;;;;;;5084920;28;20464;-71
2022/09/05 08:05:44;;;;;;;7.90;3.70;;;;;;;;;;5087324;28;20464;-71
2022/09/05 08:08:15;;;;;;;5.30;2.80;;;;;;;;;;5084965;28;20491;-71
2022/09/05 08:10:49;;;;;;;7.97;4.00;;;;;;;;;;5082555;28;20505;-71
2022/09/05 08:13:18;;;;;;;7.00;2.93;;;;;;;;;;5081480;28;20463;-71
2022/09/05 08:15:55;;;;;;;7.97;3.27;;;;;;;;;;5080759;28;20496;-72
2022/09/05 08:18:36;;;;;;;4.90;3.37;;;;;;;;;;5088995;28;20487;-71
2022/09/05 08:21:06;;;;;;;6.10;4.10;;;;;;;;;;5091109;28;20463;-71
2022/09/05 08:23:44;;;;;;;5.67;4.47;;;;;;;;;;5092833;28;20464;-72
2022/09/05 08:26:13;;;;;;;6.90;3.67;;;;;;;;;;5092175;28;20469;-72
2022/09/05 08:28:54;;;;;;;6.07;3.40;;;;;;;;;;5092314;28;20459;-72
2022/09/05 08:31:23;;;;;;;8.00;4.27;;;;;;;;;;5086692;28;20534;-71
2022/09/05 08:33:53;;;;;;;9.60;3.87;;;;;;;;;;5092615;28;20547;-72
2022/09/05 08:36:26;;;;;;;7.90;4.30;;;;;;;;;;5086127;28;20507;-71
2022/09/05 08:39:00;;;;;;;7.77;4.13;;;;;;;;;;5090461;28;20492;-72
2022/09/05 08:41:32;;;;;;;9.23;3.67;;;;;;;;;;5085517;27;20944;-72
2022/09/05 08:44:04;;;;;;;5.40;4.00;;;;;;;;;;5089504;28;20465;-72
2022/09/05 08:46:33;;;;;;;10.20;4.17;;;;;;;;;;5087990;28;21040;-73
2022/09/05 08:49:13;;;;;;;6.30;4.10;;;;;;;;;;5092596;28;20512;-72
2022/09/05 08:51:50;;;;;;;6.83;4.30;;;;;;;;;;5092336;28;20450;-72
2022/09/05 08:54:22;;;;;;;9.63;4.10;;;;;;;;;;5093517;28;20960;-72
2022/09/05 08:56:58;;;;;;;6.07;3.80;;;;;;;;;;5079693;28;20475;-72
2022/09/05 08:59:33;;;;;;;7.60;4.00;;;;;;;;;;5090740;28;20491;-72
2022/09/05 09:02:23;;;;;;;9.23;4.23;;;;;;;;;;5093761;28;20447;-72
2022/09/05 09:05:06;;;;;;;8.53;4.30;;;;;;;;;;5072700;28;20460;-72
2022/09/05 09:07:35;;;;;;;8.00;4.50;;;;;;;;;;5090184;28;20456;-73
2022/09/05 09:10:04;;;;;;;6.67;4.17;;;;;;;;;;5091994;28;20531;-71
2022/09/05 09:12:55;;;;;;;6.27;3.90;;;;;;;;;;5093721;28;21004;-73
2022/09/05 09:15:25;;;;;;;6.10;3.47;;;;;;;;;;5056368;28;20448;-73
2022/09/05 09:17:54;;;;;;;8.43;4.07;;;;;;;;;;5089163;28;20750;-73
2022/09/05 09:20:36;;;;;;;8.03;3.97;;;;;;;;;;5092912;28;20451;-72
2022/09/05 09:23:06;;;;;;;6.30;3.70;;;;;;;;;;5075688;28;20464;-72
2022/09/05 09:25:38;;;;;;;5.93;3.60;;;;;;;;;;5090404;28;20920;-72
2022/09/05 09:28:23;;;;;;;6.10;4.50;;;;;;;;;;5080455;28;20513;-73
2022/09/05 09:31:04;;;;;;;8.67;3.97;;;;;;;;;;5080650;28;20478;-71
2022/09/05 09:33:37;;;;;;;8.37;3.97;;;;;;;;;;5074018;28;20477;-72
2022/09/05 09:36:15;;;;;;;9.10;4.10;;;;;;;;;;5082153;28;20725;-72
2022/09/05 09:38:54;;;;;;;9.03;3.90;;;;;;;;;;5091634;28;20479;-72
2022/09/05 09:41:33;;;;;;;6.00;3.50;;;;;;;;;;5092287;28;20550;-72
2022/09/05 09:44:07;;;;;;;5.63;3.60;;;;;;;;;;5093403;28;20448;-73
2022/09/05 09:46:40;;;;;;;8.20;4.10;;;;;;;;;;5082815;28;20849;-73
2022/09/05 09:49:38;;;;;;;10.50;3.70;;;;;;;;;;5073086;28;20452;-73
2022/09/05 09:52:23;;;;;;;5.80;3.57;;;;;;;;;;5092382;28;20486;-72
2022/09/05 09:55:12;;;;;;;6.47;3.60;;;;;;;;;;5090583;28;20506;-71
2022/09/05 09:58:08;;;;;;;6.23;4.13;;;;;;;;;;5084877;28;20463;-73
2022/09/05 10:00:49;;;;;;;6.73;3.20;;;;;;;;;;5025369;28;20540;-70
2022/09/05 10:06:46;;;;;;;6.00;3.23;;;;;;;;;;5088767;28;20929;-72
2022/09/05 10:09:23;;;;;;;5.80;3.53;;;;;;;;;;5091554;28;21148;-73
2022/09/05 10:12:06;;;;;;;6.47;3.40;;;;;;;;;;5084990;28;20470;-72
2022/09/05 10:17:59;;;;;;;5.20;3.30;;;;;;;;;;5056662;28;20493;-74
2022/09/05 10:20:36;;;;;;;5.80;2.90;;;;;;;;;;5089893;28;20861;-72
2022/09/05 10:26:39;;;;;;;5.47;2.80;;;;;;;;;;5075195;28;20462;-72
2022/09/05 10:30:08;;;;;;;8.00;3.33;;;;;;;;;;5084286;28;20860;-73
2022/09/05 10:35:49;;;;;;;6.97;3.40;;;;;;;;;;5084643;28;20452;-73
2022/09/05 10:45:05;;;;;;;5.93;2.93;;;;;;;;;;5079923;28;20543;-73
2022/09/05 10:51:16;;;;;;;;;;;;;;;;;;;;;
2022/09/05 10:53:53;;;;;;;6.00;3.30;;;;;;;;;;5086575;28;20459;-72
2022/09/05 10:56:32;;;;;;;6.00;3.50;;;;;;;;;;5092147;28;20482;-72
2022/09/05 10:59:12;;;;;;;7.90;3.60;;;;;;;;;;5093069;28;20494;-73
2022/09/05 11:01:46;;;;;;;14.20;3.20;;;;;;;;;;5093129;28;20470;-73
2022/09/05 11:04:39;;;;;;;5.73;3.43;;;;;;;;;;5092627;28;20463;-75
2022/09/05 11:10:16;;;;;;;5.63;2.77;;;;;;;;;;5071999;28;20470;-73
2022/09/05 11:13:09;;;;;;;8.07;4.97;;;;;;;;;;5093196;28;20524;-74
2022/09/05 11:15:45;;;;;;;10.23;5.00;;;;;;;;;;5078842;28;20495;-74
2022/09/05 11:18:16;;;;;;;6.27;4.27;;;;;;;;;;5087766;28;20486;-73
2022/09/05 11:21:03;;;;;;;5.33;2.93;;;;;;;;;;5085392;28;20881;-74
2022/09/05 11:23:40;;;;;;;12.13;3.77;;;;;;;;;;5084262;28;20459;-72
2022/09/05 11:26:41;;;;;;;33.90;27.43;;;;;;;;;;5082236;28;20486;-73
2022/09/05 11:32:42;;;;;;;7.43;3.37;;;;;;;;;;4992813;28;20479;-72
2022/09/05 11:35:18;;;;;;;7.10;3.30;;;;;;;;;;5082681;28;20489;-73
2022/09/05 11:38:07;;;;;;;9.33;6.37;;;;;;;;;;5081276;28;20454;-73
2022/09/05 11:40:41;;;;;;;6.27;3.87;;;;;;;;;;5083503;28;20459;-72
2022/09/05 11:43:26;;;;;;;5.00;2.87;;;;;;;;;;5085207;28;20468;-72
2022/09/05 11:46:14;;;;;;;6.33;3.53;;;;;;;;;;5065660;27;20479;-72
2022/09/05 11:49:14;;;;;;;;;;;;;;;;;;;;;
2022/09/05 11:52:06;;;;;;;7.23;3.37;;;;;;;;;;5087912;28;20478;-72
2022/09/05 11:55:01;;;;;;;5.77;3.70;;;;;;;;;;5089366;28;20460;-72
2022/09/05 12:04:23;;;;;;;6.57;3.07;;;;;;;;;;5030414;28;20476;-73
2022/09/05 12:07:16;;;;;;;7.00;4.30;;;;;;;;;;5085051;28;20444;-72
2022/09/05 12:09:59;;;;;;;8.13;3.47;;;;;;;;;;5048890;28;20941;-73
2022/09/05 12:12:40;;;;;;;7.53;3.30;;;;;;;;;;5088186;28;20479;-72
2022/09/05 12:15:42;;;;;;;5.33;2.40;;;;;;;;;;5088365;28;20956;-72
2022/09/05 12:18:15;;;;;;;7.33;3.30;;;;;;;;;;5077623;28;20928;-72
2022/09/05 12:20:51;;;;;;;5.27;2.70;;;;;;;;;;5089302;28;20960;-72
2022/09/05 12:23:37;;;;;;;5.53;3.17;;;;;;;;;;5089081;28;20903;-71
2022/09/05 12:26:15;;;;;;;6.10;3.00;;;;;;;;;;5084182;28;20899;-71
2022/09/05 12:31:34;;;;;;;5.60;3.07;;;;;;;;;;5077235;28;20480;-71
2022/09/05 12:34:08;;;;;;;5.13;3.40;;;;;;;;;;5081261;28;20613;-72
2022/09/05 12:36:42;;;;;;;4.30;2.50;;;;;;;;;;5078288;28;20509;-72
2022/09/05 12:39:34;;;;;;;4.10;2.43;;;;;;;;;;5084119;28;21020;-73
2022/09/05 12:42:08;;;;;;;4.33;2.90;;;;;;;;;;5081282;28;20478;-71
2022/09/05 12:44:49;;;;;;;6.67;3.53;;;;;;;;;;5081046;28;20831;-71
2022/09/05 12:47:21;;;;;;;12.70;3.30;;;;;;;;;;5085073;28;20467;-72
2022/09/05 12:50:05;;;;;;;4.80;3.23;;;;;;;;;;5091848;28;20535;-72
2022/09/05 12:52:55;;;;;;;3.87;2.83;;;;;;;;;;5086245;28;20466;-72
2022/09/05 12:55:26;;;;;;;4.13;2.83;;;;;;;;;;5087680;28;20472;-71
2022/09/05 12:58:03;;;;;;;6.43;4.23;;;;;;;;;;5088946;28;20497;-72
2022/09/05 13:04:18;;;;;;;5.67;3.50;;;;;;;;;;5087691;28;20628;-70
2022/09/05 13:07:04;;;;;;;8.17;2.93;;;;;;;;;;5065614;28;20494;-71
2022/09/05 13:09:44;;;;;;;5.63;3.30;;;;;;;;;;5081980;28;20574;-70
2022/09/05 13:12:18;;;;;;;6.23;3.10;;;;;;;;;;5091938;28;20455;-71
2022/09/05 13:14:56;;;;;;;5.17;3.20;;;;;;;;;;5092132;28;20529;-71
2022/09/05 13:17:29;;;;;;;7.13;3.00;;;;;;;;;;5091123;28;20451;-71
2022/09/05 13:19:57;;;;;;;4.27;2.40;;;;;;;;;;5089758;28;20494;-71
2022/09/05 13:22:26;;;;;;;3.77;2.20;;;;;;;;;;5088068;28;20444;-71
2022/09/05 13:25:05;;;;;;;4.90;2.37;;;;;;;;;;5086185;28;20911;-72
2022/09/05 13:27:38;;;;;;;4.60;2.70;;;;;;;;;;5089655;28;20471;-72
2022/09/05 13:30:10;;;;;;;5.03;3.20;;;;;;;;;;5090016;28;20528;-72
2022/09/05 13:32:43;;;;;;;4.93;2.50;;;;;;;;;;5089894;28;20538;-72
2022/09/05 13:35:13;;;;;;;4.80;2.90;;;;;;;;;;5081657;28;20528;-72
2022/09/05 13:37:43;;;;;;;7.13;2.90;;;;;;;;;;5084623;28;20532;-72
2022/09/05 13:40:18;;;;;;;4.97;2.60;;;;;;;;;;5091742;28;20475;-73
2022/09/05 13:42:56;;;;;;;4.00;2.60;;;;;;;;;;5090906;28;20494;-73
2022/09/05 13:45:28;;;;;;;5.13;2.47;;;;;;;;;;5085793;28;20463;-72
2022/09/05 13:48:00;;;;;;;4.10;3.10;;;;;;;;;;5091637;28;20464;-70
2022/09/05 13:50:28;;;;;;;3.67;2.40;;;;;;;;;;5089235;28;20451;-70
2022/09/05 13:52:58;;;;;;;5.43;2.43;;;;;;;;;;5071771;28;21062;-70
2022/09/05 13:55:42;;;;;;;7.83;3.07;;;;;;;;;;5087176;28;20854;-70
2022/09/05 13:58:13;;;;;;;5.40;2.67;;;;;;;;;;5080961;28;20812;-71
2022/09/05 14:00:59;;;;;;;8.30;2.60;;;;;;;;;;5077400;28;20463;-71
2022/09/05 14:03:48;;;;;;;3.73;2.63;;;;;;;;;;5089259;28;20470;-73
2022/09/05 14:06:27;;;;;;;6.00;2.70;;;;;;;;;;5090381;28;21048;-71
2022/09/05 14:09:02;;;;;;;4.47;2.70;;;;;;;;;;5088117;28;21175;-72
2022/09/05 14:11:45;;;;;;;4.13;2.50;;;;;;;;;;5092382;28;20552;-72
2022/09/05 14:14:18;;;;;;;4.97;2.30;;;;;;;;;;5090193;28;20482;-71
2022/09/05 14:16:48;;;;;;;8.67;6.20;;;;;;;;;;5089058;28;20456;-72
2022/09/05 14:22:05;;;;;;;4.50;2.90;;;;;;;;;;5086244;28;20746;-73
2022/09/05 14:24:34;;;;;;;4.90;3.10;;;;;;;;;;5089285;28;20547;-72
2022/09/05 14:27:13;;;;;;;3.63;2.70;;;;;;;;;;5090606;28;20519;-73
2022/09/05 14:29:41;;;;;;;4.60;2.50;;;;;;;;;;5076536;28;20494;-73
2022/09/05 14:32:28;;;;;;;4.20;2.10;;;;;;;;;;5080969;28;20468;-73
2022/09/05 14:35:06;;;;;;;4.30;2.77;;;;;;;;;;5091544;28;20462;-73
2022/09/05 14:37:48;;;;;;;5.87;2.77;;;;;;;;;;5082872;28;20476;-73
2022/09/05 14:40:36;;;;;;;5.40;3.07;;;;;;;;;;5089761;28;20463;-73
2022/09/05 14:43:29;;;;;;;6.30;2.33;;;;;;;;;;5091137;28;20483;-73
2022/09/05 14:46:06;;;;;;;10.30;3.27;;;;;;;;;;5087500;28;20460;-72
2022/09/05 14:48:43;;;;;;;5.07;2.90;;;;;;;;;;5083495;28;20486;-71
2022/09/05 14:51:18;;;;;;;3.73;2.53;;;;;;;;;;5089296;28;20444;-72
2022/09/05 14:54:06;;;;;;;3.70;2.70;;;;;;;;;;5083370;28;20470;-72
2022/09/05 14:56:46;;;;;;;3.90;2.80;;;;;;;;;;5086819;28;20471;-72
2022/09/05 14:59:22;;;;;;;5.63;4.13;;;;;;;;;;5087100;28;20487;-72
2022/09/05 15:01:52;;;;;;;3.77;2.83;;;;;;;;;;5085103;28;20910;-72
2022/09/05 15:04:23;;;;;;;3.93;2.47;;;;;;;;;;5089315;28;20885;-72
2022/09/05 15:07:10;;;;;;;5.00;2.70;;;;;;;;;;5086183;28;20482;-72
2022/09/05 15:09:46;;;;;;;3.93;2.53;;;;;;;;;;5087626;28;20474;-72
2022/09/05 15:12:22;;;;;;;4.27;2.60;;;;;;;;;;5084084;28;20519;-72
2022/09/05 15:15:01;;;;;;;5.20;2.40;;;;;;;;;;5083062;28;20467;-72
2022/09/05 15:17:46;;;;;;;4.10;2.60;;;;;;;;;;5089928;28;20447;-71
2022/09/05 15:20:29;;;;;;;5.03;3.10;;;;;;;;;;5089464;28;20514;-72
2022/09/05 15:22:59;;;;;;;5.17;3.17;;;;;;;;;;5092175;28;20443;-72
2022/09/05 15:25:29;;;;;;;4.97;2.70;;;;;;;;;;5087636;28;20468;-71
2022/09/05 15:27:57;;;;;;;8.70;2.70;;;;;;;;;;5072965;28;20491;-73
2022/09/05 15:30:32;;;;;;;7.07;2.50;;;;;;;;;;5080079;28;20750;-71
2022/09/05 15:33:15;;;;;;;4.13;2.60;;;;;;;;;;5095004;28;20447;-73
2022/09/05 15:35:43;;;;;;;4.87;2.50;;;;;;;;;;5093475;28;20955;-73
2022/09/05 15:38:28;;;;;;;4.37;2.50;;;;;;;;;;5088187;28;20556;-73
2022/09/05 15:41:06;;;;;;;5.87;2.80;;;;;;;;;;5092440;28;20613;-74
2022/09/05 15:43:35;;;;;;;6.97;3.10;;;;;;;;;;5092730;28;20439;-72
2022/09/05 15:46:04;;;;;;;4.20;2.90;;;;;;;;;;5091456;28;20901;-72
2022/09/05 15:48:34;;;;;;;7.23;3.57;;;;;;;;;;5090504;28;20880;-72
2022/09/05 15:51:26;;;;;;;4.50;2.83;;;;;;;;;;5092478;28;20452;-72
2022/09/05 15:53:55;;;;;;;4.93;2.47;;;;;;;;;;5064525;28;20473;-74
2022/09/05 15:56:28;;;;;;;4.30;2.80;;;;;;;;;;5077144;28;20460;-74
2022/09/05 15:59:04;;;;;;;5.00;2.97;;;;;;;;;;5090989;28;20475;-73
2022/09/05 16:01:36;;;;;;;5.43;2.73;;;;;;;;;;5093278;28;20474;-73
2022/09/05 16:04:05;;;;;;;5.40;2.73;;;;;;;;;;5092748;28;20462;-73
2022/09/05 16:06:39;;;;;;;6.33;2.80;;;;;;;;;;5092901;28;20755;-73
2022/09/05 16:09:11;;;;;;;8.70;2.53;;;;;;;;;;5090465;28;20463;-73
2022/09/05 16:11:40;;;;;;;6.47;2.83;;;;;;;;;;5086334;28;20957;-73
2022/09/05 16:14:14;;;;;;;5.63;2.73;;;;;;;;;;5087535;28;20478;-73
2022/09/05 16:16:43;;;;;;;5.33;3.07;;;;;;;;;;5089478;28;21061;-72
2022/09/05 16:19:15;;;;;;;4.20;2.57;;;;;;;;;;5086568;28;20475;-73
2022/09/05 16:21:44;;;;;;;4.90;2.80;;;;;;;;;;5092211;28;20455;-73
2022/09/05 16:24:14;;;;;;;4.00;2.20;;;;;;;;;;5090179;28;20735;-73
2022/09/05 16:26:43;;;;;;;5.27;2.83;;;;;;;;;;5091567;28;20551;-73
2022/09/05 16:29:16;;;;;;;6.00;2.67;;;;;;;;;;5092736;28;20457;-72